Time;durP1;ratioP1;P1;durP2;ratioP2;P2;SDS_P1;SDS_P2;PMS_P1;PMS_P2;Temp;Humidity;BMP_temperature;BMP_pressure;BME280_temperature;BME280_humidity;BME280_pressure;Samples;Min_cycle;Max_cycle;Signal;HPM_P1;HPM_P2
2023/01/05 00:01:14;;;;;;;36.40;6.05;;;9.30;99.90;;;;;;4976108;28;20395;-79
2023/01/05 00:03:40;;;;;;;36.13;4.93;;;9.20;99.90;;;;;;4965796;28;20085;-79
2023/01/05 00:06:09;;;;;;;36.13;5.15;;;9.20;99.90;;;;;;4989485;28;20057;-80
2023/01/05 00:08:35;;;;;;;33.65;5.05;;;9.20;99.90;;;;;;4976839;28;20050;-80
2023/01/05 00:22:29;;;;;;;27.33;5.28;;;9.20;99.90;;;;;;4977350;28;20057;-80
2023/01/05 00:24:55;;;;;;;29.90;5.60;;;9.10;99.90;;;;;;4981200;28;20058;-80
2023/01/05 00:27:21;;;;;;;33.30;5.38;;;9.20;99.90;;;;;;4981079;28;20561;-79
2023/01/05 00:29:47;;;;;;;33.42;5.25;;;9.20;99.90;;;;;;4961154;28;20054;-79
2023/01/05 00:32:12;;;;;;;34.70;6.18;;;9.20;99.90;;;;;;4977653;28;20057;-79
2023/01/05 00:34:38;;;;;;;29.65;5.72;;;9.20;99.90;;;;;;5002168;28;20076;-79
2023/01/05 00:37:04;;;;;;;30.67;5.60;;;9.20;99.90;;;;;;4961395;28;20046;-80
2023/01/05 00:39:29;;;;;;;37.10;5.32;;;9.10;99.90;;;;;;4980269;28;20057;-79
2023/01/05 00:41:55;;;;;;;31.33;6.07;;;9.20;99.90;;;;;;4993638;28;20535;-80
2023/01/05 00:44:21;;;;;;;34.78;5.18;;;9.20;99.90;;;;;;4977008;28;20389;-80
2023/01/05 00:46:46;;;;;;;20.45;3.88;;;9.10;99.90;;;;;;4993378;28;20480;-81
2023/01/05 00:49:12;;;;;;;32.47;5.35;;;9.10;99.90;;;;;;4976751;28;20057;-80
2023/01/05 00:51:38;;;;;;;21.40;4.68;;;9.10;99.90;;;;;;4961270;28;20046;-80
2023/01/05 00:54:03;;;;;;;26.13;4.80;;;9.10;99.90;;;;;;4977393;28;20046;-81
2023/01/05 00:56:29;;;;;;;37.72;5.32;;;9.10;99.90;;;;;;4942058;28;20205;-80
2023/01/05 00:58:54;;;;;;;26.88;4.22;;;9.10;99.90;;;;;;4958461;28;20050;-79
2023/01/05 01:01:20;;;;;;;35.58;5.03;;;9.10;99.90;;;;;;4974674;28;20050;-79
2023/01/05 01:03:46;;;;;;;36.95;5.65;;;9.10;99.90;;;;;;4987657;28;20097;-79
2023/01/05 01:06:12;;;;;;;34.25;5.13;;;9.10;99.90;;;;;;4971040;28;20049;-79
2023/01/05 01:08:38;;;;;;;33.83;4.47;;;9.10;99.90;;;;;;4971939;28;20480;-79
2023/01/05 01:11:08;;;;;;;32.58;4.97;;;9.10;99.90;;;;;;4984499;28;20135;-80
2023/01/05 01:13:34;;;;;;;28.38;4.82;;;9.00;99.90;;;;;;4977401;28;20042;-80
2023/01/05 01:16:08;;;;;;;30.98;4.55;;;9.00;99.90;;;;;;4964744;28;20044;-79
2023/01/05 01:18:34;;;;;;;30.33;4.65;;;9.00;99.90;;;;;;4980863;28;20203;-80
2023/01/05 01:21:00;;;;;;;27.05;4.25;;;9.00;99.90;;;;;;5005971;28;20531;-79
2023/01/05 01:23:26;;;;;;;29.73;4.75;;;9.00;99.90;;;;;;4992860;28;20042;-80
2023/01/05 01:25:51;;;;;;;33.30;5.15;;;9.00;99.90;;;;;;4980926;28;20056;-81
2023/01/05 01:28:17;;;;;;;26.98;4.28;;;9.00;99.90;;;;;;4980592;28;20483;-79
2023/01/05 01:30:43;;;;;;;27.98;5.40;;;9.00;99.90;;;;;;4996913;28;20049;-82
2023/01/05 01:33:08;;;;;;;25.10;4.28;;;9.00;99.90;;;;;;4979690;28;20045;-80
2023/01/05 01:35:36;;;;;;;33.88;4.75;;;8.90;99.90;;;;;;4980200;28;20092;-80
2023/01/05 01:38:03;;;;;;;30.35;4.32;;;9.00;99.90;;;;;;4996616;28;20536;-79
2023/01/05 01:40:29;;;;;;;24.83;4.32;;;9.00;99.90;;;;;;4996614;28;20111;-79
2023/01/05 01:42:54;;;;;;;26.45;4.90;;;9.00;99.90;;;;;;4949926;28;20046;-79
2023/01/05 01:45:24;;;;;;;23.58;3.47;;;9.00;99.90;;;;;;4977737;28;20046;-79
2023/01/05 01:47:57;;;;;;;34.78;4.43;;;9.00;99.90;;;;;;4964452;28;20066;-79
2023/01/05 01:50:35;;;;;;;26.90;4.15;;;9.00;99.90;;;;;;4990658;28;20057;-80
2023/01/05 01:53:08;;;;;;;38.15;4.20;;;9.00;99.90;;;;;;4991565;28;20042;-80
2023/01/05 01:55:35;;;;;;;25.65;4.05;;;8.90;99.90;;;;;;4976567;28;20046;-80
2023/01/05 01:58:04;;;;;;;35.28;4.70;;;8.90;99.90;;;;;;4976749;28;20044;-79
2023/01/05 02:00:29;;;;;;;29.00;4.95;;;8.90;99.90;;;;;;4976902;28;20050;-81
2023/01/05 02:02:58;;;;;;;26.77;4.95;;;8.90;99.90;;;;;;4977088;28;20044;-79
2023/01/05 02:05:32;;;;;;;34.03;5.60;;;8.90;99.90;;;;;;4993086;28;20046;-80
2023/01/05 02:07:58;;;;;;;21.25;3.63;;;8.90;99.90;;;;;;5001160;28;20547;-79
2023/01/05 02:11:01;;;;;;;25.23;4.50;;;9.00;99.90;;;;;;4997642;28;20074;-80
2023/01/05 02:13:58;;;;;;;27.15;4.90;;;8.90;99.90;;;;;;4992519;28;20137;-89
2023/01/05 02:16:23;;;;;;;27.13;4.18;;;9.00;99.90;;;;;;4976891;28;20050;-80
2023/01/05 02:19:11;;;;;;;21.67;3.67;;;8.90;99.90;;;;;;4991788;28;20492;-79
2023/01/05 02:21:58;;;;;;;31.52;4.85;;;8.90;99.90;;;;;;4992547;28;20050;-80
2023/01/05 02:24:53;;;;;;;31.90;4.82;;;9.00;99.90;;;;;;4977095;28;20104;-81
2023/01/05 02:27:28;;;;;;;22.60;3.95;;;8.90;99.90;;;;;;4965296;28;20042;-79
2023/01/05 02:30:22;;;;;;;32.15;5.30;;;9.00;99.90;;;;;;4977101;28;20058;-79
2023/01/05 02:33:12;;;;;;;30.13;4.82;;;9.00;99.90;;;;;;5005353;28;20136;-79
2023/01/05 02:36:10;;;;;;;29.48;3.92;;;9.00;99.90;;;;;;4981139;28;20057;-81
2023/01/05 02:38:43;;;;;;;27.77;4.25;;;8.90;99.90;;;;;;4992473;28;20047;-79
2023/01/05 02:41:19;;;;;;;40.92;5.18;;;8.90;99.90;;;;;;4992018;28;20613;-79
2023/01/05 02:43:45;;;;;;;27.55;5.00;;;8.90;99.90;;;;;;4991373;28;20400;-79
2023/01/05 02:46:11;;;;;;;35.70;4.80;;;8.90;99.90;;;;;;4991335;28;20058;-80
2023/01/05 02:48:38;;;;;;;41.95;5.60;;;8.90;99.90;;;;;;4975126;28;20137;-80
2023/01/05 02:51:12;;;;;;;26.58;4.72;;;8.90;99.90;;;;;;4991278;28;20133;-80
2023/01/05 02:53:48;;;;;;;30.05;4.65;;;8.90;99.90;;;;;;4991766;28;20050;-80
2023/01/05 02:56:45;;;;;;;29.88;5.13;;;8.90;99.90;;;;;;4991379;28;20050;-80
2023/01/05 02:59:22;;;;;;;45.92;7.10;;;8.90;99.90;;;;;;4990869;28;20061;-79
2023/01/05 03:01:56;;;;;;;27.95;5.25;;;8.80;99.90;;;;;;4991744;28;20125;-79
2023/01/05 03:04:41;;;;;;;26.67;5.00;;;8.80;99.90;;;;;;4990045;28;20074;-79
2023/01/05 03:07:11;;;;;;;35.40;5.93;;;8.80;99.90;;;;;;4989830;28;20104;-80
2023/01/05 03:09:39;;;;;;;33.72;4.85;;;8.80;99.90;;;;;;4979124;28;20109;-80
2023/01/05 03:15:14;;;;;;;34.00;4.05;;;8.90;99.90;;;;;;4984214;28;20057;-77
2023/01/05 03:17:45;;;;;;;30.55;5.00;;;8.90;99.90;;;;;;4973837;28;20054;-78
2023/01/05 03:20:14;;;;;;;31.73;5.13;;;8.90;99.90;;;;;;4973747;28;20054;-79
2023/01/05 03:36:57;;;;;;;35.55;6.30;;;8.90;99.90;;;;;;4973127;28;20500;-78
2023/01/05 03:39:26;;;;;;;33.05;5.35;;;9.00;99.90;;;;;;4980598;28;20054;-81
2023/01/05 03:41:53;;;;;;;32.85;5.65;;;8.90;99.90;;;;;;4958144;28;20050;-78
2023/01/05 03:44:19;;;;;;;37.35;5.70;;;8.90;99.90;;;;;;4971514;28;20514;-78
2023/01/05 03:46:45;;;;;;;27.27;4.88;;;9.00;99.90;;;;;;4987801;28;20055;-79
2023/01/05 03:49:10;;;;;;;34.00;5.32;;;8.90;99.90;;;;;;4984281;28;20089;-80
2023/01/05 03:51:36;;;;;;;29.02;4.88;;;8.90;99.90;;;;;;4974086;28;20038;-78
2023/01/05 03:54:02;;;;;;;34.28;5.30;;;8.90;99.90;;;;;;4951039;28;20376;-78
2023/01/05 03:56:27;;;;;;;38.17;6.25;;;8.90;99.90;;;;;;4976676;28;20046;-80
2023/01/05 03:58:53;;;;;;;31.02;5.35;;;8.90;99.90;;;;;;4984548;28;20042;-78
2023/01/05 04:01:19;;;;;;;34.88;4.25;;;9.00;99.90;;;;;;4967394;28;20416;-78
2023/01/05 04:03:45;;;;;;;31.25;5.32;;;8.90;99.90;;;;;;4957114;28;20050;-78
2023/01/05 04:06:10;;;;;;;36.15;5.57;;;9.00;99.90;;;;;;4963740;28;20054;-79
2023/01/05 04:08:36;;;;;;;30.58;5.88;;;8.90;99.90;;;;;;4977017;28;20046;-78
2023/01/05 04:11:11;;;;;;;28.45;4.80;;;9.00;99.90;;;;;;4967078;28;20687;-78
2023/01/05 04:13:37;;;;;;;30.98;5.20;;;9.00;99.90;;;;;;4971407;28;20096;-77
2023/01/05 04:16:02;;;;;;;26.30;5.63;;;8.90;99.90;;;;;;4986170;28;20038;-78
2023/01/05 04:18:28;;;;;;;32.92;4.93;;;9.00;99.90;;;;;;4958799;28;20137;-78
2023/01/05 04:20:54;;;;;;;29.25;5.13;;;9.00;99.90;;;;;;4990691;28;20442;-78
2023/01/05 04:23:20;;;;;;;34.15;4.75;;;9.00;99.90;;;;;;4945624;28;20081;-78
2023/01/05 04:25:46;;;;;;;30.17;5.25;;;9.00;99.90;;;;;;4951498;28;20453;-83
2023/01/05 04:28:12;;;;;;;25.80;4.20;;;9.00;99.90;;;;;;4986936;28;20053;-77
2023/01/05 04:30:38;;;;;;;23.92;5.68;;;9.00;99.90;;;;;;4993735;28;20050;-79
2023/01/05 04:33:04;;;;;;;27.27;4.90;;;9.00;99.90;;;;;;4993253;28;20046;-79
2023/01/05 04:35:29;;;;;;;29.10;4.72;;;9.00;99.90;;;;;;4976738;28;20128;-78
2023/01/05 04:37:55;;;;;;;31.35;5.07;;;8.90;99.90;;;;;;4957479;28;20081;-78
2023/01/05 04:40:21;;;;;;;37.13;5.65;;;9.00;99.90;;;;;;4976213;28;20518;-78
2023/01/05 04:42:46;;;;;;;32.38;5.72;;;8.90;99.90;;;;;;4977306;28;20054;-82
2023/01/05 04:45:12;;;;;;;29.30;5.03;;;9.00;99.90;;;;;;4961279;28;20046;-77
2023/01/05 04:47:38;;;;;;;32.28;5.72;;;8.90;99.90;;;;;;4980783;28;20123;-80
2023/01/05 04:50:04;;;;;;;25.20;5.07;;;9.00;99.90;;;;;;4962541;28;20108;-78
2023/01/05 04:52:30;;;;;;;28.65;4.72;;;9.00;99.90;;;;;;4946490;28;20407;-78
2023/01/05 04:54:55;;;;;;;23.88;4.50;;;9.00;99.90;;;;;;4983995;28;20057;-78
2023/01/05 04:57:21;;;;;;;21.60;5.22;;;9.00;99.90;;;;;;4981273;28;20119;-78
2023/01/05 04:59:47;;;;;;;25.27;5.07;;;8.90;99.90;;;;;;4964673;28;20050;-77
2023/01/05 05:02:13;;;;;;;21.58;4.63;;;9.00;99.90;;;;;;4997138;28;20041;-77
2023/01/05 05:04:39;;;;;;;22.42;4.53;;;9.00;99.90;;;;;;4964761;28;20085;-78
2023/01/05 05:07:04;;;;;;;21.48;3.85;;;9.00;99.90;;;;;;4982978;28;20085;-80
2023/01/05 05:09:30;;;;;;;25.10;4.05;;;9.00;99.90;;;;;;4964716;28;20053;-77
2023/01/05 05:11:56;;;;;;;29.90;4.65;;;9.00;99.90;;;;;;4980771;28;20050;-78
2023/01/05 05:14:21;;;;;;;25.35;4.78;;;9.00;99.90;;;;;;4980907;28;20435;-78
2023/01/05 05:16:47;;;;;;;34.60;4.78;;;9.00;99.90;;;;;;4997163;28;20089;-78
2023/01/05 05:19:13;;;;;;;24.85;4.30;;;9.10;99.90;;;;;;4962453;28;20071;-78
2023/01/05 05:21:39;;;;;;;24.48;3.55;;;9.10;99.90;;;;;;4972802;28;20058;-79
2023/01/05 05:24:05;;;;;;;23.35;4.10;;;9.10;99.90;;;;;;4978614;28;20097;-77
2023/01/05 05:26:30;;;;;;;22.60;3.47;;;9.10;99.90;;;;;;4988086;28;20085;-78
2023/01/05 05:28:59;;;;;;;20.65;4.28;;;9.10;99.90;;;;;;4979890;28;20042;-78
2023/01/05 05:31:25;;;;;;;25.60;4.28;;;9.10;99.90;;;;;;4977354;28;20395;-78
2023/01/05 05:33:51;;;;;;;19.98;4.03;;;9.10;99.90;;;;;;4977410;28;20450;-78
2023/01/05 05:36:17;;;;;;;32.65;6.20;;;9.10;99.90;;;;;;4971377;28;20113;-78
2023/01/05 05:38:43;;;;;;;30.15;5.28;;;9.10;99.90;;;;;;4996675;28;20077;-78
2023/01/05 05:41:08;;;;;;;26.75;4.30;;;9.20;99.90;;;;;;4964130;28;20483;-78
2023/01/05 05:43:34;;;;;;;27.17;4.88;;;9.10;99.90;;;;;;4993032;28;20104;-78
2023/01/05 05:46:00;;;;;;;27.25;5.25;;;9.10;99.90;;;;;;4979773;28;20537;-78
2023/01/05 05:48:26;;;;;;;28.92;4.63;;;9.20;99.90;;;;;;4980095;28;20081;-78
2023/01/05 05:50:52;;;;;;;25.65;3.38;;;9.20;99.90;;;;;;4946055;28;20061;-78
2023/01/05 05:53:17;;;;;;;21.58;3.72;;;9.20;99.90;;;;;;4993119;28;20128;-79
2023/01/05 05:55:47;;;;;;;30.70;5.03;;;9.20;99.90;;;;;;4980419;28;20049;-79
2023/01/05 05:58:13;;;;;;;28.25;5.50;;;9.20;99.90;;;;;;4996242;28;20082;-81
2023/01/05 06:00:39;;;;;;;24.13;5.82;;;9.20;99.90;;;;;;4968585;28;20042;-79
2023/01/05 06:03:05;;;;;;;31.27;7.82;;;9.20;99.90;;;;;;5004709;28;20077;-79
2023/01/05 06:05:30;;;;;;;27.38;7.35;;;9.20;99.90;;;;;;4977159;28;20081;-78
2023/01/05 06:07:56;;;;;;;28.95;5.13;;;9.10;99.90;;;;;;4973301;28;20042;-78
2023/01/05 06:10:22;;;;;;;24.13;4.45;;;9.10;99.90;;;;;;4976703;28;20045;-78
2023/01/05 06:12:47;;;;;;;24.17;4.63;;;9.10;99.90;;;;;;4979186;28;20558;-78
2023/01/05 06:15:13;;;;;;;29.80;5.20;;;9.10;99.90;;;;;;4979337;28;20073;-81
2023/01/05 06:17:39;;;;;;;27.10;4.45;;;9.10;99.90;;;;;;4979396;28;20116;-78
2023/01/05 06:20:06;;;;;;;22.63;3.85;;;9.10;99.90;;;;;;4979706;28;20506;-79
2023/01/05 06:22:31;;;;;;;29.88;4.65;;;9.10;99.90;;;;;;4995589;28;20046;-78
2023/01/05 06:24:57;;;;;;;23.88;3.72;;;9.10;99.90;;;;;;4996158;28;20396;-78
2023/01/05 06:27:26;;;;;;;26.40;4.18;;;9.10;99.90;;;;;;4973817;28;20057;-78
2023/01/05 06:29:51;;;;;;;20.33;3.38;;;9.00;99.90;;;;;;4968876;28;20510;-78
2023/01/05 06:32:17;;;;;;;22.10;4.50;;;9.10;99.90;;;;;;4959888;28;20038;-78
2023/01/05 06:34:43;;;;;;;19.95;3.92;;;9.10;99.90;;;;;;4971714;28;20057;-78
2023/01/05 06:37:08;;;;;;;31.33;4.43;;;9.10;99.90;;;;;;4976983;28;20038;-79
2023/01/05 06:39:34;;;;;;;30.33;4.65;;;9.10;99.90;;;;;;4959093;28;20042;-81
2023/01/05 06:42:00;;;;;;;30.92;5.32;;;9.10;99.90;;;;;;4976495;28;20045;-79
2023/01/05 06:44:25;;;;;;;32.97;5.60;;;9.10;99.90;;;;;;4982862;28;20043;-79
2023/01/05 06:46:51;;;;;;;36.88;6.75;;;9.10;99.90;;;;;;4942750;28;20058;-79
2023/01/05 06:49:17;;;;;;;34.45;5.82;;;9.00;99.90;;;;;;4969964;28;20053;-79
2023/01/05 06:51:42;;;;;;;32.65;5.57;;;9.00;99.90;;;;;;4958705;28;20487;-79
2023/01/05 06:54:08;;;;;;;48.30;11.52;;;9.00;99.90;;;;;;4977888;28;20056;-81
2023/01/05 06:56:34;;;;;;;29.13;5.10;;;9.00;99.90;;;;;;4988057;28;20069;-78
2023/01/05 06:58:59;;;;;;;43.22;12.23;;;9.00;99.90;;;;;;4951154;28;20081;-78
2023/01/05 07:01:25;;;;;;;33.85;6.07;;;9.00;99.90;;;;;;4961753;28;20041;-78
2023/01/05 07:03:51;;;;;;;37.88;6.30;;;9.00;99.90;;;;;;4958282;28;20090;-78
2023/01/05 07:06:16;;;;;;;32.75;6.15;;;9.00;99.90;;;;;;4975800;28;20041;-78
2023/01/05 07:08:42;;;;;;;27.25;5.85;;;9.00;99.90;;;;;;4984777;28;20047;-78
2023/01/05 07:11:08;;;;;;;27.23;4.57;;;9.00;99.90;;;;;;4988749;28;20050;-83
2023/01/05 07:13:34;;;;;;;26.50;4.47;;;8.90;99.90;;;;;;4960098;28;20050;-78
2023/01/05 07:15:59;;;;;;;34.28;4.78;;;9.00;99.90;;;;;;4992573;28;20050;-78
2023/01/05 07:18:25;;;;;;;30.88;5.40;;;8.90;99.90;;;;;;4978213;28;20077;-78
2023/01/05 07:20:51;;;;;;;28.75;5.63;;;8.90;99.90;;;;;;4958706;28;20412;-78
2023/01/05 07:23:17;;;;;;;27.15;5.22;;;8.90;99.90;;;;;;4949406;28;20039;-78
2023/01/05 07:25:42;;;;;;;22.35;4.15;;;8.90;99.90;;;;;;4962985;28;20046;-78
2023/01/05 07:28:08;;;;;;;26.55;5.10;;;8.90;99.90;;;;;;4974956;28;20137;-82
2023/01/05 07:30:34;;;;;;;35.95;6.10;;;8.90;99.90;;;;;;4971591;28;20125;-78
2023/01/05 07:33:00;;;;;;;19.50;4.63;;;8.90;99.90;;;;;;4974955;28;20069;-78
2023/01/05 07:35:27;;;;;;;28.35;5.43;;;8.90;99.90;;;;;;4991316;28;20057;-80
2023/01/05 07:37:55;;;;;;;32.55;5.43;;;8.90;99.90;;;;;;4990641;28;20484;-78
2023/01/05 07:40:21;;;;;;;27.88;6.00;;;8.90;99.90;;;;;;4987753;28;20050;-78
2023/01/05 07:42:53;;;;;;;30.85;4.55;;;8.90;99.90;;;;;;4975459;28;20096;-77
2023/01/05 07:45:19;;;;;;;29.48;5.50;;;8.90;99.90;;;;;;4955517;28;20049;-78
2023/01/05 07:47:45;;;;;;;22.65;4.57;;;8.80;99.90;;;;;;4966775;28;20057;-78
2023/01/05 07:50:11;;;;;;;26.05;4.70;;;8.80;99.90;;;;;;4979638;28;20057;-78
2023/01/05 07:52:38;;;;;;;29.48;4.45;;;8.80;99.90;;;;;;4990247;28;20050;-78
2023/01/05 07:55:04;;;;;;;23.65;3.90;;;8.80;99.90;;;;;;4997469;28;20411;-78
2023/01/05 07:57:30;;;;;;;26.90;5.25;;;8.80;99.90;;;;;;4981968;28;20574;-77
2023/01/05 07:59:56;;;;;;;30.25;4.65;;;8.80;99.90;;;;;;4955760;28;20046;-77
2023/01/05 08:02:22;;;;;;;26.38;4.15;;;8.80;99.90;;;;;;4994508;28;20053;-77
2023/01/05 08:04:48;;;;;;;31.80;5.15;;;8.80;99.90;;;;;;4958310;28;20076;-77
2023/01/05 08:07:14;;;;;;;25.42;4.50;;;8.80;99.90;;;;;;4970957;28;20100;-85
2023/01/05 08:12:24;;;;;;;23.90;4.78;;;8.80;99.90;;;;;;4979754;28;20100;-78
2023/01/05 08:14:50;;;;;;;26.25;4.80;;;8.90;99.90;;;;;;4969673;28;20058;-77
2023/01/05 08:17:16;;;;;;;16.67;3.80;;;8.90;99.90;;;;;;4971168;28;20052;-84
2023/01/05 08:19:41;;;;;;;31.98;5.57;;;8.90;99.90;;;;;;4931814;28;20399;-77
2023/01/05 08:22:08;;;;;;;19.08;4.47;;;8.90;99.90;;;;;;4992487;28;20046;-77
2023/01/05 08:24:34;;;;;;;20.98;4.35;;;8.90;99.90;;;;;;4957991;28;20046;-79
2023/01/05 08:27:00;;;;;;;24.50;5.25;;;9.00;99.90;;;;;;4988749;28;20173;-77
2023/01/05 08:29:25;;;;;;;31.60;8.25;;;9.00;99.90;;;;;;4941165;28;20050;-78
2023/01/05 08:31:51;;;;;;;24.88;4.80;;;8.90;99.90;;;;;;4969717;28;20077;-78
2023/01/05 08:34:17;;;;;;;23.52;5.60;;;8.90;99.90;;;;;;4958203;28;20070;-77
2023/01/05 08:36:42;;;;;;;23.98;5.95;;;9.00;99.90;;;;;;4988596;28;20053;-77
2023/01/05 08:39:11;;;;;;;26.00;7.68;;;9.00;99.90;;;;;;4977622;28;20450;-77
2023/01/05 08:41:39;;;;;;;28.27;4.95;;;9.00;99.90;;;;;;4973841;28;20042;-77
2023/01/05 08:44:09;;;;;;;22.98;4.55;;;9.00;99.90;;;;;;4981205;28;20407;-77
2023/01/05 08:46:36;;;;;;;24.85;3.85;;;9.00;99.90;;;;;;5007940;28;20797;-78
2023/01/05 08:49:04;;;;;;;28.25;7.07;;;9.00;99.90;;;;;;4983829;28;20054;-77
2023/01/05 08:51:31;;;;;;;27.67;6.55;;;9.00;99.90;;;;;;4974597;28;20050;-77
2023/01/05 08:53:57;;;;;;;30.05;5.88;;;9.00;99.90;;;;;;4977337;28;20053;-78
2023/01/05 08:56:25;;;;;;;24.35;4.75;;;9.00;99.90;;;;;;4973157;28;20054;-78
2023/01/05 08:58:51;;;;;;;25.10;4.28;;;9.00;99.90;;;;;;4968511;28;20499;-81
2023/01/05 09:01:18;;;;;;;28.33;4.85;;;9.00;99.90;;;;;;4976709;28;20072;-77
2023/01/05 09:03:44;;;;;;;21.15;3.67;;;9.00;99.90;;;;;;4957636;28;20042;-78
2023/01/05 09:06:11;;;;;;;27.00;3.95;;;9.00;99.90;;;;;;4986916;28;20076;-77
2023/01/05 09:08:38;;;;;;;26.90;5.80;;;9.10;99.90;;;;;;4983777;28;20045;-77
2023/01/05 09:11:15;;;;;;;35.95;5.03;;;9.00;99.90;;;;;;4990445;28;20085;-78
2023/01/05 09:13:44;;;;;;;22.67;4.38;;;9.00;99.90;;;;;;4975542;28;20057;-77
2023/01/05 09:16:11;;;;;;;18.25;3.75;;;9.00;99.90;;;;;;4988791;28;20840;-77
2023/01/05 09:18:39;;;;;;;29.80;3.85;;;9.00;99.90;;;;;;4969985;28;20494;-77
2023/01/05 09:21:05;;;;;;;22.67;3.53;;;9.00;99.90;;;;;;4993000;28;20125;-78
2023/01/05 09:23:31;;;;;;;29.30;5.15;;;9.10;99.90;;;;;;4976505;28;20053;-80
2023/01/05 09:25:57;;;;;;;28.75;4.65;;;9.10;99.90;;;;;;4983600;28;20511;-77
2023/01/05 09:28:23;;;;;;;19.70;3.85;;;9.10;99.90;;;;;;4956537;28;20049;-81
2023/01/05 09:30:49;;;;;;;18.27;2.97;;;9.10;99.90;;;;;;4964282;28;20057;-78
2023/01/05 09:33:14;;;;;;;21.17;3.47;;;9.10;99.90;;;;;;4996936;28;20108;-77
2023/01/05 09:35:40;;;;;;;21.10;4.10;;;9.20;99.90;;;;;;4953311;28;20499;-77
2023/01/05 09:38:06;;;;;;;18.05;3.47;;;9.20;99.90;;;;;;4996467;28;20049;-77
2023/01/05 09:40:41;;;;;;;30.65;4.90;;;9.20;99.90;;;;;;4950674;28;20115;-77
2023/01/05 09:43:14;;;;;;;20.02;3.92;;;9.20;99.90;;;;;;4996885;28;20050;-78
2023/01/05 09:45:39;;;;;;;17.85;3.20;;;9.20;99.90;;;;;;4966166;28;20057;-78
2023/01/05 09:48:07;;;;;;;29.02;4.70;;;9.20;99.90;;;;;;4975141;28;20057;-77
2023/01/05 09:50:32;;;;;;;19.83;3.65;;;9.20;99.90;;;;;;4996290;28;20092;-78
2023/01/05 09:52:59;;;;;;;23.13;3.88;;;9.20;99.90;;;;;;4981930;28;20136;-81
2023/01/05 09:55:29;;;;;;;26.50;4.03;;;9.30;99.90;;;;;;4968004;28;20157;-78
2023/01/05 09:58:04;;;;;;;22.38;4.28;;;9.30;99.90;;;;;;4984548;28;20050;-78
2023/01/05 10:00:30;;;;;;;25.30;3.90;;;9.30;99.90;;;;;;4996360;28;20507;-82
2023/01/05 10:03:07;;;;;;;19.48;3.15;;;9.30;99.90;;;;;;4979516;28;20496;-77
2023/01/05 10:05:39;;;;;;;19.25;3.55;;;9.30;99.90;;;;;;4992705;28;20043;-77
2023/01/05 10:08:22;;;;;;;22.50;4.35;;;9.30;99.90;;;;;;4968949;28;20384;-78
2023/01/05 10:13:44;;;;;;;25.70;4.15;;;9.40;99.90;;;;;;4987420;28;20446;-78
2023/01/05 10:16:15;;;;;;;24.33;4.47;;;9.40;99.90;;;;;;4995432;28;20049;-77
2023/01/05 10:18:41;;;;;;;19.88;3.80;;;9.50;99.90;;;;;;4988685;28;20138;-77
2023/01/05 10:21:55;;;;;;;24.35;3.67;;;9.30;99.90;;;;;;4985407;28;20125;-77
2023/01/05 10:24:34;;;;;;;24.33;3.75;;;9.30;99.90;;;;;;4971924;28;20053;-76
2023/01/05 10:27:10;;;;;;;25.33;4.05;;;9.30;99.90;;;;;;4974267;28;20100;-77
2023/01/05 10:29:43;;;;;;;16.23;3.30;;;9.30;99.90;;;;;;4993834;28;20049;-78
2023/01/05 10:32:28;;;;;;;23.67;3.97;;;9.40;99.90;;;;;;4988337;28;20081;-78
2023/01/05 10:34:59;;;;;;;16.08;3.70;;;9.40;99.90;;;;;;4993839;28;20046;-78
2023/01/05 10:37:57;;;;;;;19.90;3.80;;;9.40;99.90;;;;;;4994742;28;20084;-77
2023/01/05 10:40:27;;;;;;;17.60;3.92;;;9.40;99.90;;;;;;4988060;28;20125;-77
2023/01/05 10:43:34;;;;;;;19.58;2.92;;;9.40;99.90;;;;;;4974327;28;20074;-77
2023/01/05 10:46:01;;;;;;;25.48;4.15;;;9.40;99.90;;;;;;4950673;28;20133;-77
2023/01/05 10:48:33;;;;;;;14.95;3.30;;;9.40;99.90;;;;;;4993732;28;20069;-77
2023/01/05 10:50:59;;;;;;;20.08;3.45;;;9.40;99.90;;;;;;4977576;28;20125;-77
2023/01/05 10:53:28;;;;;;;22.95;3.53;;;9.40;99.90;;;;;;4977668;28;20053;-77
2023/01/05 10:55:58;;;;;;;13.68;3.20;;;9.50;99.90;;;;;;4977232;28;20104;-79
2023/01/05 10:58:25;;;;;;;21.75;3.72;;;9.50;99.90;;;;;;4988784;28;20107;-80
2023/01/05 11:01:04;;;;;;;27.38;3.70;;;9.50;99.90;;;;;;4988698;28;20042;-83
2023/01/05 11:03:40;;;;;;;14.00;2.70;;;9.50;99.90;;;;;;4967334;28;20416;-77
2023/01/05 11:06:08;;;;;;;39.33;4.15;;;9.50;99.90;;;;;;4974577;28;20381;-77
2023/01/05 11:08:34;;;;;;;17.92;3.30;;;9.60;99.90;;;;;;4952959;28;20050;-80
2023/01/05 11:11:03;;;;;;;17.95;3.17;;;9.60;99.90;;;;;;4977016;28;20077;-78
2023/01/05 11:13:45;;;;;;;18.02;3.40;;;9.60;99.90;;;;;;5011339;28;20056;-78
2023/01/05 11:16:19;;;;;;;19.65;3.45;;;9.60;99.90;;;;;;4973093;28;20046;-79
2023/01/05 11:18:54;;;;;;;16.88;3.58;;;9.60;99.90;;;;;;4944566;28;20150;-81
2023/01/05 11:21:24;;;;;;;16.92;3.30;;;9.60;99.90;;;;;;4977234;28;20057;-78
2023/01/05 11:23:58;;;;;;;14.95;2.70;;;9.60;99.90;;;;;;4992748;28;20061;-83
2023/01/05 11:26:32;;;;;;;16.65;2.47;;;9.70;99.90;;;;;;4980106;28;20502;-78
2023/01/05 11:28:59;;;;;;;9.15;1.88;;;9.70;99.90;;;;;;4974792;28;20456;-77
2023/01/05 11:31:52;;;;;;;9.82;1.77;;;9.60;99.90;;;;;;4993083;28;20088;-79
2023/01/05 11:34:36;;;;;;;9.55;2.15;;;9.50;99.90;;;;;;4981853;28;20058;-81
2023/01/05 11:37:06;;;;;;;9.70;2.00;;;9.50;99.90;;;;;;4990753;28;20038;-77
2023/01/05 11:39:45;;;;;;;12.35;2.20;;;9.50;99.90;;;;;;4993012;28;20054;-77
2023/01/05 11:42:13;;;;;;;13.93;2.75;;;9.60;99.90;;;;;;4994059;28;20080;-78
2023/01/05 11:44:45;;;;;;;17.88;2.72;;;9.60;99.90;;;;;;5011410;28;20108;-79
2023/01/05 11:47:20;;;;;;;13.52;2.78;;;9.60;99.90;;;;;;4977065;28;20061;-78
2023/01/05 11:49:47;;;;;;;13.98;2.92;;;9.60;99.90;;;;;;4976670;28;20062;-78
2023/01/05 11:52:31;;;;;;;9.57;2.40;;;9.60;99.90;;;;;;4990033;28;20535;-77
2023/01/05 11:54:57;;;;;;;14.52;2.40;;;9.60;99.90;;;;;;4991088;28;20065;-78
2023/01/05 11:57:22;;;;;;;13.30;2.50;;;9.60;99.90;;;;;;4993979;28;20050;-78
2023/01/05 11:59:50;;;;;;;16.13;3.10;;;9.60;99.90;;;;;;4992759;28;20081;-80
2023/01/05 12:02:53;;;;;;;16.35;2.60;;;9.50;99.90;;;;;;4983429;28;20046;-78
2023/01/05 12:05:43;;;;;;;12.40;2.42;;;9.50;99.90;;;;;;4974802;28;20499;-78
2023/01/05 12:08:35;;;;;;;16.08;2.60;;;9.60;99.90;;;;;;4992962;28;20132;-77
2023/01/05 12:11:20;;;;;;;17.38;3.08;;;9.60;99.90;;;;;;4975330;28;20406;-78
2023/01/05 12:14:15;;;;;;;13.57;3.63;;;9.60;99.90;;;;;;4971334;28;20132;-81
2023/01/05 12:16:48;;;;;;;22.25;3.20;;;9.60;99.90;;;;;;4981635;28;20049;-78
2023/01/05 12:19:32;;;;;;;16.30;2.97;;;9.60;99.90;;;;;;4992055;28;20042;-79
2023/01/05 12:22:29;;;;;;;19.63;4.28;;;9.60;99.90;;;;;;4974456;28;20078;-84
2023/01/05 12:25:31;;;;;;;24.30;3.28;;;9.60;99.90;;;;;;4977158;28;20052;-79
2023/01/05 12:28:27;;;;;;;17.75;3.08;;;9.50;99.90;;;;;;4981054;28;20045;-78
2023/01/05 12:31:20;;;;;;;17.50;2.95;;;9.50;99.90;;;;;;4991306;28;20496;-78
2023/01/05 12:34:00;;;;;;;17.80;2.75;;;9.40;99.90;;;;;;4977310;28;20388;-78
2023/01/05 12:37:07;;;;;;;16.38;2.88;;;9.40;99.90;;;;;;4993807;28;20080;-79
2023/01/05 12:39:39;;;;;;;31.83;4.70;;;9.40;99.90;;;;;;4981733;28;20061;-78
2023/01/05 12:42:38;;;;;;;15.05;3.80;;;9.50;99.90;;;;;;4976660;28;20049;-80
2023/01/05 12:45:27;;;;;;;12.57;2.85;;;9.60;99.90;;;;;;4997871;28;20073;-78
2023/01/05 12:47:52;;;;;;;17.67;2.80;;;9.50;99.90;;;;;;4946162;28;20073;-86
2023/01/05 12:50:42;;;;;;;17.98;3.30;;;9.50;99.90;;;;;;4993901;28;20072;-83
2023/01/05 12:53:34;;;;;;;19.23;4.07;;;9.50;99.90;;;;;;4977466;28;20053;-78
2023/01/05 12:56:10;;;;;;;19.20;2.90;;;9.50;99.90;;;;;;4981593;28;20058;-79
2023/01/05 12:58:40;;;;;;;18.05;3.55;;;9.50;99.90;;;;;;4993561;28;20061;-78
2023/01/05 13:01:18;;;;;;;16.42;5.05;;;9.40;99.90;;;;;;4993607;28;20077;-78
2023/01/05 13:04:33;;;;;;;16.30;3.42;;;9.50;99.90;;;;;;4996963;28;20049;-78
2023/01/05 13:07:02;;;;;;;20.35;4.43;;;9.40;99.90;;;;;;4973173;28;20058;-78
2023/01/05 13:09:30;;;;;;;19.30;4.05;;;9.40;99.90;;;;;;4995187;28;20179;-78
2023/01/05 13:12:09;;;;;;;20.52;3.63;;;9.40;99.90;;;;;;4993787;28;20050;-78
2023/01/05 13:14:37;;;;;;;19.58;3.70;;;9.40;99.90;;;;;;4980540;28;20061;-79
2023/01/05 13:17:11;;;;;;;21.05;4.57;;;9.40;99.90;;;;;;4979229;28;20081;-78
2023/01/05 13:19:50;;;;;;;19.23;4.10;;;9.40;99.90;;;;;;5007154;28;20046;-78
2023/01/05 13:22:30;;;;;;;23.45;4.88;;;9.30;99.90;;;;;;4979729;28;20477;-79
2023/01/05 13:24:55;;;;;;;23.08;3.95;;;9.30;99.90;;;;;;4996968;28;20054;-83
2023/01/05 13:27:21;;;;;;;23.02;4.35;;;9.30;99.90;;;;;;4980351;28;20053;-78
2023/01/05 13:29:56;;;;;;;16.77;3.72;;;9.20;99.90;;;;;;4980941;28;20053;-78
2023/01/05 13:32:40;;;;;;;27.42;4.15;;;9.20;99.90;;;;;;4996811;28;20107;-78
2023/01/05 13:35:47;;;;;;;20.58;4.88;;;9.20;99.90;;;;;;4980347;28;20053;-78
2023/01/05 13:38:31;;;;;;;24.10;4.00;;;9.30;99.90;;;;;;4996812;28;20042;-78
2023/01/05 13:41:23;;;;;;;21.67;4.20;;;9.20;99.90;;;;;;4980817;28;20057;-82